Flight Track Log - Related Links

Times and Time Zones

All times are in EDT time to prevent confusion due to time zone crossing. See the AFR1427 flight status page for this flight to view local times or setup timezone preferences in your user account.

Time Position Orientation Groundspeed Altitude Reporting Facility
EDT Latitude Longitude Course Direction KTS MPH feet Rate Location/Type
Thu 06:56:37 AM 45.5250 12.3790 301° West 147 169 1,500  Level FlightAware ADS-B
Thu 06:57:00 AM 46.0467 11.0535 301° West  Level Estimated
Thu 06:57:02 AM 45.5360 12.4000 53° Northeast 170 196 2,100  Level FlightAware ADS-B
Thu 06:57:47 AM 45.5310 12.4610 97° East 220 253 3,500 2,314 Climbing FlightAware ADS-B
Thu 06:58:12 AM 45.5280 12.4950 97° East 219 252 4,800 3,300 Climbing FlightAware ADS-B
Thu 06:58:27 AM 45.5220 12.5150 113° Southeast 221 254 5,700 3,300 Climbing FlightAware ADS-B
Thu 06:58:32 AM 45.5180 12.5210 134° Southeast 224 258 5,900 2,400 Climbing FlightAware ADS-B
Thu 06:58:52 AM 45.5010 12.5300 160° South 234 269 6,700 2,677 Climbing FlightAware ADS-B
Thu 06:59:37 AM 45.4640 12.4920 216° Southwest 243 280 8,800 2,329 Climbing FlightAware ADS-B
Thu 07:00:17 AM 45.4760 12.4170 283° West 293 337 10,000 1,725 Climbing FlightAware ADS-B
Thu 07:00:57 AM 45.4920 12.3430 287° West 330 380 11,100 2,520 Climbing FlightAware ADS-B
Thu 07:01:57 AM 45.5090 12.2090 280° West 337 388 14,200 2,820 Climbing FlightAware ADS-B
Thu 07:02:37 AM 45.5200 12.1200 280° West 349 402 15,800 2,471 Climbing FlightAware ADS-B
Thu 07:03:22 AM 45.5320 12.0190 280° West 352 405 17,700 2,541 Climbing FlightAware ADS-B
Thu 07:04:02 AM 45.5420 11.9270 279° West 355 409 19,400 2,211 Climbing FlightAware ADS-B
Thu 07:04:57 AM 45.5560 11.8070 280° West 364 419 21,200 1,980 Climbing FlightAware ADS-B
Thu 07:05:42 AM 45.5690 11.6950 279° West 374 430 22,700 1,800 Climbing FlightAware ADS-B
Thu 07:06:17 AM 45.5800 11.6040 280° West 386 444 23,600 1,906 Climbing FlightAware ADS-B
Thu 07:07:07 AM 45.5930 11.4850 279° West 382 440 25,400 2,000 Climbing FlightAware ADS-B
Thu 07:08:02 AM 45.6080 11.3550 279° West 380 437 27,100 1,800 Climbing FlightAware ADS-B
Thu 07:08:37 AM 45.6200 11.2510 279° West 389 448 28,100 1,341 Climbing FlightAware ADS-B
Thu 07:09:27 AM 45.6310 11.1490 279° West 394 453 29,000 1,533 Climbing FlightAware ADS-B
Thu 07:10:07 AM 45.6440 11.0110 278° West 394 453 30,400 1,412 Climbing FlightAware ADS-B
Thu 07:10:52 AM 45.6460 10.8880 271° West 409 471 31,000 424 Climbing FlightAware ADS-B
Thu 07:11:32 AM 45.6470 10.7860 271° West 409 471 31,000 353 Level FlightAware ADS-B
Thu 07:12:17 AM 45.6520 10.6610 273° West 409 471 31,500 1,059 Climbing FlightAware ADS-B
Thu 07:12:57 AM 45.6680 10.5670 284° West 405 466 32,500 1,725 Climbing FlightAware ADS-B
Thu 07:13:37 AM 45.6860 10.4630 284° West 391 450 33,800 1,835 Climbing FlightAware ADS-B
Thu 07:14:22 AM 45.7070 10.3410 284° West 384 442 35,100 1,271 Climbing FlightAware ADS-B
Thu 07:15:02 AM 45.7230 10.2420 283° West 390 449 35,600 706 Climbing FlightAware ADS-B
Thu 07:15:47 AM 45.7420 10.1300 284° West 395 455 36,100 776 Climbing FlightAware ADS-B
Thu 07:16:27 AM 45.7590 10.0300 284° West 395 455 36,700 825 Climbing FlightAware ADS-B
Thu 07:17:07 AM 45.7760 9.9310 284° West 395 455 37,200 918 Climbing FlightAware ADS-B
Thu 07:17:52 AM 45.7950 9.8190 284° West 389 448 38,000 565 Climbing FlightAware ADS-B
Thu 07:18:32 AM 45.8130 9.7110 283° West 399 459 38,000  Level FlightAware ADS-B
Thu 07:19:12 AM 45.8300 9.6080 283° West 398 458 38,000  Level FlightAware ADS-B
Thu 07:19:57 AM 45.8470 9.5010 283° West 397 457 38,000  Level FlightAware ADS-B
Thu 07:20:37 AM 45.8630 9.4020 283° West 396 456 38,000  Level FlightAware ADS-B
Thu 07:21:17 AM 45.8800 9.2980 283° West 396 456 38,000  Level FlightAware ADS-B
Thu 07:22:02 AM 45.8990 9.1850 284° West 394 453 38,000  Level FlightAware ADS-B
Thu 07:22:47 AM 45.9180 9.0670 283° West 393 452 38,000  Level FlightAware ADS-B
Thu 07:23:27 AM 45.9330 8.9680 282° West 392 451 38,000  Level FlightAware ADS-B
Thu 07:24:07 AM 45.9500 8.8660 284° West 392 451 38,000  Level FlightAware ADS-B
Thu 07:24:52 AM 45.9680 8.7520 283° West 394 453 38,000  Level FlightAware ADS-B
Thu 07:25:32 AM 45.9950 8.6550 292° West 398 458 38,000  Level FlightAware ADS-B
Thu 07:26:12 AM 46.0240 8.5560 293° West 398 458 38,000  Level FlightAware ADS-B
Thu 07:26:57 AM 46.0560 8.4470 293° West 398 458 38,000  Level FlightAware ADS-B
Thu 07:27:37 AM 46.0830 8.3560 293° West 397 457 38,000  Level FlightAware ADS-B
Thu 07:28:22 AM 46.1170 8.2380 293° West 397 457 38,000  Level FlightAware ADS-B
Thu 07:29:02 AM 46.1460 8.1420 294° West 399 459 38,000  Level FlightAware ADS-B
Thu 07:29:42 AM 46.1730 8.0480 293° West 400 460 38,000  Level FlightAware ADS-B
Thu 07:30:27 AM 46.2060 7.9330 293° West 400 460 38,000  Level FlightAware ADS-B
Thu 07:31:07 AM 46.2330 7.8400 293° West 399 459 38,000  Level FlightAware ADS-B
Thu 07:31:52 AM 46.2660 7.7250 293° West 399 459 38,000  Level FlightAware ADS-B
Thu 07:32:32 AM 46.2940 7.6250 292° West 398 458 38,000  Level FlightAware ADS-B
Thu 07:33:17 AM 46.3260 7.5150 293° West 398 458 38,000  Level FlightAware ADS-B
Thu 07:33:57 AM 46.3530 7.4190 292° West 395 455 38,000  Level FlightAware ADS-B
Thu 07:34:37 AM 46.3810 7.3190 292° West 396 456 38,000  Level FlightAware ADS-B
Thu 07:35:22 AM 46.4120 7.2090 292° West 395 455 38,000  Level FlightAware ADS-B
Thu 07:36:02 AM 46.4400 7.1110 293° West 395 455 38,000  Level FlightAware ADS-B
Thu 07:36:42 AM 46.4670 7.0150 292° West 396 456 38,000  Level FlightAware ADS-B
Thu 07:37:27 AM 46.5000 6.8940 292° West 396 456 38,000  Level FlightAware ADS-B
Thu 07:38:07 AM 46.5260 6.8010 292° West 397 457 38,000  Level FlightAware ADS-B
Thu 07:38:52 AM 46.5540 6.6980 292° West 397 457 38,000  Level FlightAware ADS-B
Thu 07:39:32 AM 46.5840 6.5890 292° West 395 455 38,000  Level FlightAware ADS-B
Thu 07:40:17 AM 46.6140 6.4780 292° West 393 452 38,000  Level FlightAware ADS-B
Thu 07:40:57 AM 46.6400 6.3840 292° West 391 450 38,000  Level FlightAware ADS-B
Thu 07:41:37 AM 46.6660 6.2890 292° West 391 450 38,000  Level FlightAware ADS-B
Thu 07:42:22 AM 46.6970 6.1720 291° West 392 451 38,000 -71 Level FlightAware ADS-B
Thu 07:43:02 AM 46.7260 6.0820 295° West 406 467 37,900  Descending FlightAware ADS-B
Thu 07:43:47 AM 46.7920 5.9950 318° Northwest 418 481 38,000 109 Climbing FlightAware ADS-B
Thu 07:43:57 AM 46.8131 5.9706 322° Northwest 427 491 38,000  Level FlightAware ADS-B
Thu 07:44:27 AM 46.8590 5.9210 324° Northwest 426 490 38,000  Level FlightAware ADS-B
Thu 07:44:36 AM 46.8748 5.9034 323° Northwest 426 490 38,000  Level FlightAware ADS-B
Thu 07:45:07 AM 46.9220 5.8510 323° Northwest 426 490 38,000  Level FlightAware ADS-B
Thu 07:45:52 AM 46.9910 5.7740 323° Northwest 426 490 38,000  Level FlightAware ADS-B
Thu 07:46:32 AM 47.0520 5.7060 323° Northwest 426 490 38,000  Level FlightAware ADS-B
Thu 07:47:12 AM 47.1170 5.6330 323° Northwest 427 491 38,000  Level FlightAware ADS-B
Thu 07:47:57 AM 47.1860 5.5560 323° Northwest 427 491 38,000  Level FlightAware ADS-B
Thu 07:48:37 AM 47.2480 5.4870 323° Northwest 425 489 38,000  Level FlightAware ADS-B
Thu 07:49:22 AM 47.3210 5.4040 322° Northwest 423 487 38,000 -635 Level FlightAware ADS-B
Thu 07:50:02 AM 47.3800 5.3370 322° Northwest 419 482 37,100 -1,875 Descending FlightAware ADS-B
Thu 07:50:42 AM 47.4430 5.2660 323° Northwest 412 474 35,500 -2,259 Descending FlightAware ADS-B
Thu 07:51:27 AM 47.5030 5.1970 322° Northwest 403 464 33,900 -2,143 Descending FlightAware ADS-B
Thu 07:51:38 AM 47.5265 5.1669 319° Northwest 399 459 33,500 -1,275 Descending FlightAware ADS-B
Thu 07:52:47 AM 47.6190 5.0400 317° Northwest 411 473 32,200 -1,111 Descending FlightAware ADS-B
Thu 07:52:59 AM 47.6391 5.0113 316° Northwest 415 478 32,000 -977 Descending FlightAware ADS-B
Thu 07:53:30 AM 47.6815 4.9524 317° Northwest 400 460 31,500 -947 Descending FlightAware ADS-B
Thu 07:54:15 AM 47.7412 4.8696 317° Northwest 396 456 30,800 -923 Descending FlightAware ADS-B
Thu 07:54:48 AM 47.7843 4.8092 317° Northwest 390 449 30,300 -952 Descending FlightAware ADS-B
Thu 07:55:18 AM 47.8240 4.7537 317° Northwest 392 451 29,800 -1,043 Descending FlightAware ADS-B
Thu 07:55:57 AM 47.8750 4.6822 317° Northwest 390 449 29,100 -1,068 Descending FlightAware ADS-B
Thu 07:56:31 AM 47.9197 4.6193 317° Northwest 387 445 28,500 -923 Descending FlightAware ADS-B
Thu 07:57:02 AM 47.9560 4.5680 317° Northwest 386 444 28,100 -1,317 Descending FlightAware ADS-B
Thu 07:57:12 AM 47.9731 4.5440 317° Northwest 386 444 27,600 -1,950 Descending FlightAware ADS-B
Thu 07:57:42 AM 48.0040 4.5010 317° Northwest 380 437 26,800 -2,040 Descending FlightAware ADS-B
Thu 07:58:02 AM 48.0364 4.4544 316° Northwest 376 433 25,900 -2,308 Descending FlightAware ADS-B
Thu 07:58:34 AM 48.0761 4.3982 317° Northwest 369 425 24,800 -2,031 Descending FlightAware ADS-B
Thu 07:59:07 AM 48.1140 4.3440 316° Northwest 360 414 23,700 -1,953 Descending FlightAware ADS-B
Thu 07:59:17 AM 48.1277 4.3249 317° Northwest 361 415 23,400 -2,045 Descending FlightAware ADS-B
Thu 07:59:51 AM 48.1690 4.2659 316° Northwest 356 410 22,200 -1,941 Descending FlightAware ADS-B
Thu 08:00:25 AM 48.2085 4.2096 316° Northwest 352 405 21,200 -1,875 Descending FlightAware ADS-B
Thu 08:00:55 AM 48.2438 4.1590 316° Northwest 347 399 20,200 -1,935 Descending FlightAware ADS-B
Thu 08:01:27 AM 48.2806 4.1061 316° Northwest 347 399 19,200 -2,000 Descending FlightAware ADS-B
Thu 08:02:01 AM 48.3218 4.0468 316° Northwest 361 415 18,000 -2,031 Descending FlightAware ADS-B
Thu 08:02:32 AM 48.3589 3.9933 316° Northwest 354 407 17,000 -1,967 Descending FlightAware ADS-B
Thu 08:03:02 AM 48.3940 3.9427 316° Northwest 349 402 16,000 -1,905 Descending FlightAware ADS-B
Thu 08:03:35 AM 48.4318 3.8878 316° Northwest 353 406 15,000 -1,818 Descending FlightAware ADS-B
Thu 08:04:08 AM 48.4704 3.8321 316° Northwest 343 395 14,000 -1,938 Descending FlightAware ADS-B
Thu 08:04:40 AM 48.5067 3.7793 316° Northwest 342 394 12,900 -1,855 Descending FlightAware ADS-B
Thu 08:05:03 AM 48.5321 3.7422 316° Northwest 330 380 12,300 -1,455 Descending FlightAware ADS-B
Thu 08:05:13 AM 48.5419 3.7248 310° West 321 369 12,100 -1,364 Descending FlightAware ADS-B
Thu 08:05:25 AM 48.5524 3.7042 308° West 320 368 11,800 -1,667 Descending FlightAware ADS-B
Thu 08:05:31 AM 48.5590 3.6943 315° West 324 373 11,600 -1,500 Descending FlightAware ADS-B
Thu 08:05:37 AM 48.5663 3.6862 324° Northwest 327 376 11,500 -1,000 Descending FlightAware ADS-B
Thu 08:05:43 AM 48.5742 3.6801 333° Northwest 328 377 11,400 -1,000 Descending FlightAware ADS-B
Thu 08:05:49 AM 48.5835 3.6756 342° North 329 379 11,300 -833 Descending FlightAware ADS-B
Thu 08:06:19 AM 48.6269 3.6635 350° North 311 358 10,900 -987 Descending FlightAware ADS-B
Thu 08:07:08 AM 48.6943 3.6459 350° North 308 354 10,000 -1,031 Descending FlightAware ADS-B
Thu 08:07:23 AM 48.7142 3.6409 350° North 283 326 9,800 -985 Descending FlightAware ADS-B
Thu 08:08:15 AM 48.7794 3.6244 351° North 276 318 8,900 -1,172 Descending FlightAware ADS-B
Thu 08:08:50 AM 48.8222 3.6135 350° North 269 310 8,100 -1,294 Descending FlightAware ADS-B
Thu 08:09:06 AM 48.8414 3.6087 351° North 265 305 7,800 -1,059 Descending FlightAware ADS-B
Thu 08:09:24 AM 48.8624 3.6035 351° North 263 303 7,500 -1,273 Descending FlightAware ADS-B
Thu 08:09:39 AM 48.8810 3.5992 351° North 261 300 7,100 -1,355 Descending FlightAware ADS-B
Thu 08:09:55 AM 48.8994 3.5944 350° North 259 298 6,800 -1,250 Descending FlightAware ADS-B
Thu 08:10:03 AM 48.9080 3.5887 336° Northwest 250 288 6,600 -1,304 Descending FlightAware ADS-B
Thu 08:10:18 AM 48.9202 3.5712 317° Northwest 234 269 6,300 -1,355 Descending FlightAware ADS-B
Thu 08:10:34 AM 48.9305 3.5504 307° West 228 262 5,900 -1,500 Descending FlightAware ADS-B
Thu 08:10:50 AM 48.9399 3.5304 306° West 229 264 5,500 -1,500 Descending FlightAware ADS-B
Thu 08:11:06 AM 48.9496 3.5087 304° West 232 267 5,100 -968 Descending FlightAware ADS-B
Thu 08:11:21 AM 48.9583 3.4884 303° West 229 264 5,000 -600 Descending FlightAware ADS-B
Thu 08:11:36 AM 48.9672 3.4681 304° West 229 264 4,800 -1,161 Descending FlightAware ADS-B
Thu 08:11:52 AM 48.9765 3.4462 303° West 228 262 4,400 -1,448 Descending FlightAware ADS-B
Thu 08:12:05 AM 48.9837 3.4290 303° West 232 267 4,100 -800 Descending FlightAware ADS-B
Thu 08:12:22 AM 48.9934 3.4061 303° West 229 264 4,000 -182 Descending FlightAware ADS-B
Thu 08:12:38 AM 49.0030 3.3837 303° West 231 266 4,000  Level FlightAware ADS-B
Thu 08:12:54 AM 49.0122 3.3620 303° West 231 266 4,000  Level FlightAware ADS-B
Thu 08:13:09 AM 49.0210 3.3415 303° West 230 265 4,000 -261 Level FlightAware ADS-B
Thu 08:13:17 AM 49.0248 3.3307 298° West 229 264 3,900 -375 Descending FlightAware ADS-B
Thu 08:13:25 AM 49.0273 3.3189 288° West 225 259 3,900 500 Level FlightAware ADS-B
Thu 08:13:29 AM 49.0282 3.3117 281° West 225 259 4,000 462 Climbing FlightAware ADS-B
Thu 08:13:38 AM 49.0287 3.2975 273° West 222 255 4,000  Level FlightAware ADS-B
Thu 08:13:52 AM 49.0284 3.2758 269° West 220 253 4,000  Level FlightAware ADS-B
Thu 08:13:59 AM 49.0281 3.2650 268° West 221 254 4,000  Level FlightAware ADS-B
Thu 08:14:15 AM 49.0269 3.2408 266° West 220 253 4,000  Level FlightAware ADS-B
Thu 08:14:30 AM 49.0257 3.2170 266° West 222 255 4,000  Level FlightAware ADS-B
Thu 08:14:50 AM 49.0243 3.1860 266° West 222 255 4,000 -167 Level FlightAware ADS-B
Thu 08:15:06 AM 49.0232 3.1610 266° West 225 259 3,900  Descending FlightAware ADS-B
Thu 08:15:22 AM 49.0221 3.1366 266° West 223 257 4,000 194 Climbing FlightAware ADS-B
Thu 08:15:37 AM 49.0209 3.1125 266° West 225 259 4,000  Level FlightAware ADS-B
Thu 08:15:57 AM 49.0194 3.0817 266° West 225 259 4,000  Level FlightAware ADS-B
Thu 08:16:13 AM 49.0181 3.0562 266° West 226 260 4,000  Level FlightAware ADS-B
Thu 08:16:28 AM 49.0169 3.0322 266° West 224 258 4,000 -214 Level FlightAware ADS-B
Thu 08:16:41 AM 49.0159 3.0129 266° West 217 250 3,900 -250 Descending FlightAware ADS-B
Thu 08:16:52 AM 49.0151 2.9960 266° West 202 232 3,900 231 Level FlightAware ADS-B
Thu 08:17:07 AM 49.0142 2.9753 266° West 192 221 4,000 240 Climbing FlightAware ADS-B
Thu 08:17:17 AM 49.0135 2.9626 265° West 187 215 4,000  Level FlightAware ADS-B
Thu 08:17:32 AM 49.0125 2.9434 265° West 170 196 4,000  Level FlightAware ADS-B
Thu 08:17:47 AM 49.0117 2.9259 266° West 161 185 4,000 -231 Level FlightAware ADS-B
Thu 08:17:58 AM 49.0110 2.9143 265° West 159 183 3,900 -207 Descending FlightAware ADS-B
Thu 08:18:16 AM 49.0100 2.8946 266° West 156 180 3,900  Level FlightAware ADS-B
Thu 08:18:30 AM 49.0093 2.8790 266° West 157 181 3,900 -286 Level FlightAware ADS-B
Thu 08:18:37 AM 49.0089 2.8714 265° West 158 182 3,800 -818 Descending FlightAware ADS-B
Thu 08:18:52 AM 49.0080 2.8546 265° West 156 180 3,600 -800 Descending FlightAware ADS-B
Thu 08:19:07 AM 49.0072 2.8381 266° West 156 180 3,400 -889 Descending FlightAware ADS-B
Thu 08:19:19 AM 49.0065 2.8248 265° West 155 178 3,200 -1,143 Descending FlightAware ADS-B
Thu 08:19:28 AM 49.0060 2.8157 265° West 153 176 3,000 -857 Descending FlightAware ADS-B
Thu 08:19:40 AM 49.0054 2.8022 266° West 151 174 2,900 -783 Descending FlightAware ADS-B
Thu 08:19:51 AM 49.0048 2.7914 265° West 155 178 2,700 -923 Descending FlightAware ADS-B
Thu 08:20:06 AM 49.0040 2.7748 266° West 153 176 2,500 -774 Descending FlightAware ADS-B
Thu 08:20:22 AM 49.0031 2.7574 266° West 153 176 2,300 -727 Descending FlightAware ADS-B
Thu 08:20:39 AM 49.0021 2.7399 265° West 153 176 2,100 -789 Descending FlightAware ADS-B
Thu 08:21:00 AM 49.0009 2.7182 265° West 147 169 1,800 -857 Descending FlightAware ADS-B
Thu 08:21:14 AM 49.0002 2.7047 265° West 132 152 1,600 -774 Descending FlightAware ADS-B
Thu 08:21:31 AM 48.9994 2.6890 266° West 131 151 1,400 -529 Descending FlightAware ADS-B
Thu 08:21:48 AM 48.9986 2.6736 265° West 130 150 1,300 -500 Descending FlightAware ADS-B
Thu 08:21:55 AM 48.9983 2.6670 266° West 131 151 1,200 -1,000 Descending FlightAware ADS-B
Thu 08:22:06 AM 48.9977 2.6569 265° West 128 147 1,000 -720 Descending FlightAware ADS-B
Thu 08:22:20 AM 48.9971 2.6445 266° West 135 155 900 -600 Descending FlightAware ADS-B
Thu 08:22:26 AM 48.9967 2.6388 264° West 136 157 800 -818 Descending FlightAware ADS-B
Thu 08:22:42 AM 48.9960 2.6241 266° West 130 150 600 -643 Descending FlightAware ADS-B
Thu 08:22:54 AM 48.9954 2.6132 265° West 128 147 500 -500 Descending FlightAware ADS-B

Login

Don't have an account? Register now (free) for customized features, flight alerts, and more!